Aérodrome :
LOGIN :

S'inscrire | Disclaimer

   EN    FR    IT 

 










Légende :    VFR   VFR Marginal   IFR   IFR Intensif   IFR Très Intensif
Visi : 
Plafond : 
>= 8 km
>= 3000ft
5 à 8 km
1000 à 3000 ft
1500m à 5 km
500 à 1000 ft
800 à 1500m
200 à 500 ft
< 800m
< 200 ft
Symboles :   Orages  Brouillard  Fortes neiges  Fortes précipitations  Vent > 20 kt
SIGMETs :   Divers  Orages  Givrage  Turbulence  Onde Orograph.  Cendres Volcan.







- Altitude de l'aérodrome : 464 ft
- Code IATA : EVX
- Voir les cartes d'approche


LFOE - Evreux

DERNIER METAR :
  • 161530Z AUTO 27016KT 9999 FEW016/// SCT026/// BKN080/// ///TCU 06/03 Q1002

METARs EXPIRÉS :
  • 161500Z AUTO 27014KT 9999 BKN027/// BKN032/// BKN050/// ///TCU 08/04 Q1002
  • 161430Z AUTO 26017KT 9999 FEW044/// SCT074/// ///CB 08/04 Q1001
  • 161400Z AUTO 26018KT 9999 FEW025 SCT037 08/05 Q1002
  • 161330Z AUTO 26014KT 9999 SCT026 BKN034 BKN040 08/05 Q1002
  • 161300Z AUTO 26015KT 8000 SCT025 SCT038 BKN078 09/06 Q1002

TAF TAF LFOE
Valide du 16 à 15h jusqu'au 17 à 15h UTC


161400Z 1615/1715 26015G25KT 9999 SCT040
TEMPO 1615/1707 30020G30KT 3000 SHRA BKN015TCU
PROB40
TEMPO 1619/1707 26020G45KT 1500 SHRAGS BKN020CB
TEMPO 1711/1715 28015G35KT 3000 SHRA BKN020TCU
PROB40
TEMPO 1713/1715 30020G50KT
Pas de NOTAMs connus pour ce terrain.
2 SIGMETs publiés pour la FIR Paris (LFFF) :
 
Turbulence forte
LFFF SIGMET 6 VALID 161600/162000 LFPW
LFFF PARIS FIR/UIR SEV TURB FCST NW OF LINE N5045 E00245 - N4915 W00015 SFC/FL060 STNR NC=
Turbulence forte
LFFF SIGMET 5 VALID 161200/161600 LFPW
LFFF PARIS FIR/UIR SEV TURB FCST WI N4915 W00015 - N5000 W00015 - N5115 E00200 - N5045 E00245 - N4915 W00015 SFC/FL060 STNR NC=



MET'MAP, la Météo Aéronautique d'un coup d'oeil ! - Copyright ORBIFLY Décembre 2007 - Disclaimer

ORBIFLY MET'MAP TEAM :

Programmation & Développement : Alexandra Zaïnal
Conception & Développement : Baudouin d'Aumeries
Co-Programmation & Développement : Marc-Olivier Méhu
Soutien technique & logistique : Manuel Goepfert

Contact : metmap@orbifly.com




SOURCES & CREDITS :

   NOAA